Time;durP1;ratioP1;P1;durP2;ratioP2;P2;SDS_P1;SDS_P2;PMS_P1;PMS_P2;Temp;Humidity;BMP_temperature;BMP_pressure;BME280_temperature;BME280_humidity;BME280_pressure;Samples;Min_cycle;Max_cycle;Signal;HPM_P1;HPM_P2
2021/10/02 00:45:19;;;;;;;5.27;4.77;;;12.50;99.90;;;;;;5033037;28;20692;-76
2021/10/02 00:47:45;;;;;;;6.80;4.03;;;12.50;99.90;;;;;;5033077;28;20174;-75
2021/10/02 00:50:11;;;;;;;5.23;4.73;;;12.50;99.90;;;;;;5015136;28;20229;-76
2021/10/02 00:52:36;;;;;;;4.97;4.57;;;12.50;99.90;;;;;;5032890;28;20188;-76
2021/10/02 00:55:03;;;;;;;6.10;5.00;;;12.50;99.90;;;;;;5032832;28;20274;-76
2021/10/02 00:57:29;;;;;;;5.10;4.70;;;12.50;99.90;;;;;;5015410;28;20208;-76
2021/10/02 00:59:55;;;;;;;6.83;5.00;;;12.50;99.90;;;;;;5032856;28;20633;-76
2021/10/02 01:02:37;;;;;;;5.17;4.63;;;12.50;99.90;;;;;;5032571;28;20212;-76
2021/10/02 01:05:37;;;;;;;4.63;4.27;;;12.50;99.90;;;;;;5032584;28;20217;-76
2021/10/02 01:08:34;;;;;;;5.07;4.63;;;12.50;99.90;;;;;;5014881;28;20183;-76
2021/10/02 01:11:24;;;;;;;5.83;4.80;;;12.50;99.90;;;;;;5032685;28;20823;-76
2021/10/02 01:14:12;;;;;;;4.40;4.00;;;12.50;99.90;;;;;;5014833;28;20185;-76
2021/10/02 01:16:41;;;;;;;9.63;5.60;;;12.50;99.90;;;;;;5032582;28;20186;-76
2021/10/02 01:19:45;;;;;;;5.30;4.80;;;12.50;99.90;;;;;;5032387;28;20189;-76
2021/10/02 01:22:29;;;;;;;4.93;4.53;;;12.40;99.90;;;;;;4933077;29;20237;-76
2021/10/02 01:25:12;;;;;;;5.50;5.00;;;12.40;99.90;;;;;;5010050;28;20208;-76
2021/10/02 01:27:59;;;;;;;4.97;4.30;;;12.40;99.90;;;;;;5032569;28;20178;-76
2021/10/02 01:33:30;;;;;;;6.30;5.00;;;12.50;99.90;;;;;;5032644;28;20201;-76
2021/10/02 01:47:17;;;;;;;5.73;4.57;;;12.40;99.90;;;;;;5027062;28;20227;-76
2021/10/02 01:49:47;;;;;;;4.37;3.97;;;12.30;99.90;;;;;;5019445;28;20264;-76
2021/10/02 01:52:15;;;;;;;5.47;4.33;;;12.30;99.90;;;;;;5031208;28;20182;-76
2021/10/02 01:54:43;;;;;;;5.00;4.60;;;12.30;99.90;;;;;;5029686;28;20292;-76
2021/10/02 01:57:09;;;;;;;6.87;5.20;;;12.30;99.90;;;;;;5030988;28;20657;-76
2021/10/02 01:59:36;;;;;;;5.37;4.87;;;12.30;99.90;;;;;;5014366;28;20182;-76
2021/10/02 02:02:05;;;;;;;4.43;4.03;;;12.30;99.90;;;;;;5014133;28;20284;-76
2021/10/02 02:04:32;;;;;;;4.97;4.50;;;12.30;99.90;;;;;;5013994;28;20216;-76
2021/10/02 02:06:59;;;;;;;10.37;4.90;;;12.30;99.90;;;;;;5031311;28;20190;-76
2021/10/02 02:09:30;;;;;;;4.40;4.00;;;12.30;99.90;;;;;;5031845;28;20261;-76
2021/10/02 02:11:56;;;;;;;5.03;4.53;;;12.20;99.90;;;;;;5014330;28;20185;-76
2021/10/02 02:14:24;;;;;;;6.93;4.67;;;12.20;99.90;;;;;;5031831;28;20228;-76
2021/10/02 02:16:50;;;;;;;4.53;4.00;;;12.20;99.90;;;;;;5031670;28;20181;-75
2021/10/02 02:19:18;;;;;;;6.73;4.27;;;12.20;99.90;;;;;;5031821;28;20654;-76
2021/10/02 02:21:45;;;;;;;5.77;4.33;;;12.10;99.90;;;;;;5031857;28;20244;-75
2021/10/02 02:24:11;;;;;;;5.77;4.83;;;12.20;99.90;;;;;;5031903;28;20178;-75
2021/10/02 02:26:38;;;;;;;4.90;4.30;;;12.10;99.90;;;;;;5031409;28;20656;-76
2021/10/02 02:29:05;;;;;;;4.97;4.43;;;12.10;99.90;;;;;;5023907;28;20519;-76
2021/10/02 02:31:32;;;;;;;4.80;3.90;;;12.10;99.90;;;;;;5028627;28;20213;-76
2021/10/02 02:33:59;;;;;;;4.43;4.13;;;12.10;99.90;;;;;;5031716;28;20182;-75
2021/10/02 02:36:25;;;;;;;5.03;4.63;;;12.10;99.90;;;;;;5034597;28;20535;-76
2021/10/02 02:38:51;;;;;;;5.17;4.77;;;12.10;99.90;;;;;;5017664;28;20648;-76
2021/10/02 02:41:17;;;;;;;5.17;4.77;;;12.10;99.90;;;;;;5035420;28;20193;-76
2021/10/02 02:43:43;;;;;;;5.03;4.53;;;12.10;99.90;;;;;;5035281;28;20718;-76
2021/10/02 02:46:13;;;;;;;4.83;4.43;;;12.00;99.90;;;;;;5034937;28;20198;-76
2021/10/02 02:48:57;;;;;;;4.23;3.83;;;12.00;99.90;;;;;;5035310;28;20316;-75
2021/10/02 02:51:32;;;;;;;5.33;4.40;;;11.90;99.90;;;;;;5035218;28;20713;-76
2021/10/02 02:54:14;;;;;;;4.93;4.00;;;11.90;99.90;;;;;;5035136;28;20186;-75
2021/10/02 02:56:43;;;;;;;4.97;3.73;;;11.90;99.90;;;;;;5034500;28;20187;-75
2021/10/02 02:59:17;;;;;;;4.90;3.90;;;11.90;99.90;;;;;;5030963;28;20314;-76
2021/10/02 03:01:45;;;;;;;4.83;4.33;;;11.90;99.90;;;;;;5033917;28;20191;-77
2021/10/02 03:04:14;;;;;;;5.97;4.23;;;11.80;99.90;;;;;;5033788;28;20185;-76
2021/10/02 03:06:47;;;;;;;4.23;3.83;;;11.80;99.90;;;;;;5033786;28;20181;-75
2021/10/02 03:09:14;;;;;;;4.43;4.13;;;11.80;99.90;;;;;;5016150;28;20265;-76
2021/10/02 03:11:43;;;;;;;4.23;3.93;;;11.80;99.90;;;;;;5016118;28;20199;-76
2021/10/02 03:14:09;;;;;;;4.53;4.13;;;11.80;99.90;;;;;;5015849;28;20219;-75
2021/10/02 03:16:36;;;;;;;8.63;4.37;;;11.80;99.90;;;;;;5033442;28;20309;-76
2021/10/02 03:19:05;;;;;;;5.00;4.27;;;11.80;99.90;;;;;;5015733;28;20276;-76
2021/10/02 03:21:32;;;;;;;4.73;4.33;;;11.80;99.90;;;;;;5016054;28;20202;-76
2021/10/02 03:23:58;;;;;;;4.70;4.20;;;11.80;99.90;;;;;;5033599;28;20547;-75
2021/10/02 03:26:25;;;;;;;5.13;4.67;;;11.80;99.90;;;;;;5015389;28;20524;-77
2021/10/02 03:28:51;;;;;;;4.40;4.10;;;11.90;99.90;;;;;;5015849;28;20188;-76
2021/10/02 03:31:18;;;;;;;4.77;4.03;;;11.90;99.90;;;;;;5033605;28;20590;-76
2021/10/02 03:33:44;;;;;;;4.97;4.57;;;11.80;99.90;;;;;;5033355;28;20178;-76
2021/10/02 03:36:10;;;;;;;4.60;4.20;;;11.80;99.90;;;;;;5015297;28;20194;-76
2021/10/02 03:38:37;;;;;;;4.13;3.83;;;11.80;99.90;;;;;;5033288;28;20587;-76
2021/10/02 03:41:04;;;;;;;4.60;4.00;;;11.80;99.90;;;;;;5015490;28;20205;-76
2021/10/02 03:43:34;;;;;;;4.60;4.20;;;11.80;99.90;;;;;;5033879;28;20249;-76
2021/10/02 03:46:00;;;;;;;4.43;3.37;;;11.80;99.90;;;;;;5016471;28;20281;-76
2021/10/02 03:48:26;;;;;;;4.77;4.20;;;11.70;99.90;;;;;;5033849;28;20190;-77
2021/10/02 03:50:52;;;;;;;4.20;3.67;;;11.70;99.90;;;;;;5016402;28;20229;-76
2021/10/02 03:53:19;;;;;;;6.27;4.00;;;11.70;99.90;;;;;;5033947;28;20176;-77
2021/10/02 03:55:44;;;;;;;4.83;3.97;;;11.70;99.90;;;;;;5033682;28;20205;-76
2021/10/02 03:58:10;;;;;;;4.77;4.20;;;11.60;99.90;;;;;;5034184;28;20180;-76
2021/10/02 04:00:36;;;;;;;3.83;3.47;;;11.60;99.90;;;;;;5012843;28;20205;-77
2021/10/02 04:03:01;;;;;;;5.27;4.33;;;11.60;99.90;;;;;;5044298;28;20209;-75
2021/10/02 04:05:27;;;;;;;4.00;3.60;;;11.50;99.90;;;;;;5032833;28;20224;-76
2021/10/02 04:07:53;;;;;;;5.03;4.33;;;11.50;99.90;;;;;;5031734;28;20239;-76
2021/10/02 04:10:18;;;;;;;3.77;3.47;;;11.50;99.90;;;;;;5014783;28;20248;-76
2021/10/02 04:12:44;;;;;;;4.53;4.13;;;11.60;99.90;;;;;;5015764;28;20192;-76
2021/10/02 04:15:10;;;;;;;4.93;4.53;;;11.50;99.90;;;;;;5015907;28;20247;-76
2021/10/02 04:17:36;;;;;;;5.13;4.23;;;11.50;99.90;;;;;;5032982;28;20746;-76
2021/10/02 04:20:03;;;;;;;5.03;4.60;;;11.50;99.90;;;;;;5033566;28;20193;-76
2021/10/02 04:22:29;;;;;;;5.13;4.53;;;11.50;99.90;;;;;;5033311;28;20196;-76
2021/10/02 04:24:55;;;;;;;5.20;4.70;;;11.60;99.90;;;;;;5016054;28;20203;-76
2021/10/02 04:27:20;;;;;;;6.77;4.87;;;11.60;99.90;;;;;;5033528;28;20557;-76
2021/10/02 04:29:46;;;;;;;5.73;4.37;;;11.60;99.90;;;;;;5013212;28;20245;-77
2021/10/02 04:32:12;;;;;;;4.57;4.17;;;11.60;99.90;;;;;;5033360;28;20204;-77
2021/10/02 04:34:37;;;;;;;4.77;4.37;;;11.70;99.90;;;;;;5031387;28;20236;-74
2021/10/02 04:37:03;;;;;;;5.13;4.63;;;11.70;99.90;;;;;;5014521;28;20177;-77
2021/10/02 04:39:29;;;;;;;6.00;4.67;;;11.70;99.90;;;;;;5032553;28;20180;-77
2021/10/02 04:41:55;;;;;;;5.20;4.80;;;11.70;99.90;;;;;;5010893;28;20249;-77
2021/10/02 04:44:21;;;;;;;5.73;5.27;;;11.70;99.90;;;;;;5032258;28;20243;-77
2021/10/02 04:46:47;;;;;;;6.73;6.13;;;11.70;99.90;;;;;;5031785;28;20513;-77
2021/10/02 04:49:13;;;;;;;6.97;5.50;;;11.70;99.90;;;;;;5014428;28;20342;-76
2021/10/02 04:51:39;;;;;;;5.97;5.47;;;11.70;99.90;;;;;;5032054;28;20296;-76
2021/10/02 04:54:04;;;;;;;7.53;6.00;;;11.70;99.90;;;;;;5031899;28;20256;-76
2021/10/02 04:56:31;;;;;;;9.60;7.13;;;11.70;99.90;;;;;;5011770;28;20188;-76
2021/10/02 04:58:56;;;;;;;8.27;6.60;;;11.60;99.90;;;;;;5030977;28;20216;-76
2021/10/02 05:01:28;;;;;;;6.97;6.37;;;11.70;99.90;;;;;;5016500;28;20222;-76
2021/10/02 05:03:54;;;;;;;7.80;7.10;;;11.70;99.90;;;;;;5037557;28;20177;-77
2021/10/02 05:06:20;;;;;;;8.23;6.83;;;11.70;99.90;;;;;;5035442;28;20243;-78
2021/10/02 05:08:48;;;;;;;8.50;7.17;;;11.60;99.90;;;;;;5030569;28;20891;-76
2021/10/02 05:11:14;;;;;;;7.73;6.93;;;11.70;99.90;;;;;;5031670;28;20513;-75
2021/10/02 05:13:39;;;;;;;7.63;6.80;;;11.70;99.90;;;;;;5013855;28;20196;-76
2021/10/02 05:16:05;;;;;;;7.23;6.53;;;11.70;99.90;;;;;;5032359;28;20197;-75
2021/10/02 05:18:31;;;;;;;7.23;6.63;;;11.60;99.90;;;;;;5032755;28;20189;-76
2021/10/02 05:20:57;;;;;;;7.57;6.80;;;11.60;99.90;;;;;;5032520;28;20291;-75
2021/10/02 05:23:23;;;;;;;8.00;7.17;;;11.60;99.90;;;;;;5032668;28;20173;-78
2021/10/02 05:25:49;;;;;;;9.93;7.33;;;11.60;99.90;;;;;;5033200;28;20277;-76
2021/10/02 05:28:14;;;;;;;8.50;6.70;;;11.70;99.90;;;;;;5032599;28;20623;-76
2021/10/02 05:30:40;;;;;;;9.30;7.03;;;11.60;99.90;;;;;;5032547;28;20210;-75
2021/10/02 05:33:06;;;;;;;9.37;7.03;;;11.60;99.90;;;;;;5014914;28;20272;-75
2021/10/02 05:35:33;;;;;;;7.03;6.43;;;11.50;99.90;;;;;;5032002;28;20270;-75
2021/10/02 05:37:59;;;;;;;6.97;6.37;;;11.50;99.90;;;;;;5032602;28;20228;-77
2021/10/02 05:40:25;;;;;;;7.83;7.07;;;11.60;99.90;;;;;;5032709;28;20192;-76
2021/10/02 05:42:51;;;;;;;7.23;6.53;;;11.60;99.90;;;;;;5032322;28;20213;-75
2021/10/02 05:45:16;;;;;;;7.83;7.00;;;11.60;99.90;;;;;;5032238;28;20198;-77
2021/10/02 05:47:42;;;;;;;8.43;7.73;;;11.60;99.90;;;;;;5031274;28;20239;-76
2021/10/02 05:50:08;;;;;;;8.70;7.73;;;11.70;99.90;;;;;;5013148;28;20221;-77
2021/10/02 05:52:34;;;;;;;8.73;7.93;;;11.70;99.90;;;;;;5013616;28;20551;-76
2021/10/02 05:54:59;;;;;;;9.63;8.43;;;11.70;99.90;;;;;;5030589;28;20237;-77
2021/10/02 05:57:25;;;;;;;9.17;7.87;;;11.70;99.90;;;;;;5031110;28;20193;-77
2021/10/02 05:59:51;;;;;;;9.43;7.97;;;11.70;99.90;;;;;;5030782;28;20190;-77
2021/10/02 06:02:17;;;;;;;9.33;8.43;;;11.70;99.90;;;;;;5033877;28;20204;-77
2021/10/02 06:04:42;;;;;;;8.83;8.13;;;11.80;99.90;;;;;;5008904;28;20271;-76
2021/10/02 06:07:08;;;;;;;8.20;7.37;;;11.80;99.90;;;;;;5015383;28;20248;-77
2021/10/02 06:09:34;;;;;;;8.63;7.60;;;11.80;99.90;;;;;;5030845;28;20688;-77
2021/10/02 06:12:00;;;;;;;11.00;8.33;;;11.80;99.90;;;;;;5031917;28;20730;-77
2021/10/02 06:14:25;;;;;;;8.50;7.70;;;11.90;99.90;;;;;;5018163;28;20237;-77
2021/10/02 06:16:51;;;;;;;9.63;7.13;;;11.90;99.90;;;;;;5035211;28;20190;-77
2021/10/02 06:19:17;;;;;;;8.10;7.40;;;11.80;99.90;;;;;;5034551;28;20239;-77
2021/10/02 06:21:44;;;;;;;10.17;7.40;;;11.80;99.90;;;;;;5034576;28;20206;-76
2021/10/02 06:24:10;;;;;;;8.67;7.83;;;11.80;99.90;;;;;;5034324;28;20174;-76
2021/10/02 06:26:38;;;;;;;8.83;8.03;;;11.90;99.90;;;;;;5017118;28;20182;-77
2021/10/02 06:29:04;;;;;;;8.80;7.83;;;11.90;99.90;;;;;;5035566;28;20174;-75
2021/10/02 06:31:30;;;;;;;9.30;8.50;;;11.90;99.90;;;;;;5017784;28;20302;-77
2021/10/02 06:33:56;;;;;;;12.60;8.37;;;11.90;99.90;;;;;;5017838;28;20690;-76
2021/10/02 06:36:21;;;;;;;9.80;8.80;;;11.90;99.90;;;;;;5035105;28;20183;-77
2021/10/02 06:38:47;;;;;;;10.73;9.73;;;11.90;99.90;;;;;;5027539;28;20267;-77
2021/10/02 06:41:13;;;;;;;10.37;9.20;;;11.90;99.90;;;;;;5028297;28;20679;-77
2021/10/02 06:43:39;;;;;;;11.47;10.37;;;12.00;99.90;;;;;;5035190;28;20189;-77
2021/10/02 06:46:05;;;;;;;11.90;10.70;;;12.00;99.90;;;;;;5034758;28;20202;-77
2021/10/02 06:48:31;;;;;;;11.50;9.80;;;12.10;99.90;;;;;;5035063;28;20233;-77
2021/10/02 06:50:56;;;;;;;10.83;9.73;;;12.10;99.90;;;;;;5017790;28;20642;-77
2021/10/02 06:53:22;;;;;;;10.70;9.67;;;12.20;99.90;;;;;;5034594;28;20186;-77
2021/10/02 06:55:48;;;;;;;11.53;10.27;;;12.20;99.90;;;;;;5034541;28;20289;-77
2021/10/02 06:58:14;;;;;;;10.23;9.23;;;12.30;99.90;;;;;;5034471;28;20188;-77
2021/10/02 07:00:40;;;;;;;10.37;8.93;;;12.30;99.90;;;;;;5033669;28;20259;-76
2021/10/02 07:03:06;;;;;;;11.40;9.87;;;12.30;99.90;;;;;;5015758;28;20186;-77
2021/10/02 07:05:38;;;;;;;11.43;9.93;;;12.40;99.90;;;;;;5032958;28;20231;-76
2021/10/02 07:08:04;;;;;;;10.10;9.17;;;12.40;99.90;;;;;;5035090;28;20178;-76
2021/10/02 07:10:30;;;;;;;10.23;9.23;;;12.40;99.90;;;;;;5017538;28;20269;-77
2021/10/02 07:12:56;;;;;;;10.00;8.87;;;12.40;99.90;;;;;;5034933;28;20299;-76
2021/10/02 07:15:21;;;;;;;11.33;9.53;;;12.40;99.90;;;;;;5034436;28;20292;-76
2021/10/02 07:17:47;;;;;;;11.53;10.43;;;12.50;99.90;;;;;;5016974;28;20261;-76
2021/10/02 07:20:15;;;;;;;14.03;10.77;;;12.50;99.90;;;;;;5034993;28;20194;-76
2021/10/02 07:22:41;;;;;;;10.33;9.43;;;12.50;99.90;;;;;;5033713;28;20636;-76
2021/10/02 07:25:10;;;;;;;10.97;9.80;;;12.60;99.90;;;;;;5034297;28;20200;-76
2021/10/02 07:27:40;;;;;;;11.47;10.27;;;12.70;99.90;;;;;;5034573;28;20188;-74
2021/10/02 07:30:07;;;;;;;12.43;11.23;;;12.70;99.90;;;;;;5034476;28;20177;-76
2021/10/02 07:32:33;;;;;;;13.13;11.83;;;12.70;99.90;;;;;;5034773;28;20190;-76
2021/10/02 07:34:59;;;;;;;15.13;11.00;;;12.70;99.90;;;;;;5033881;28;20208;-76
2021/10/02 07:37:25;;;;;;;13.37;11.97;;;12.80;99.90;;;;;;5034337;28;20193;-76
2021/10/02 07:39:51;;;;;;;14.00;11.47;;;12.80;99.90;;;;;;5034396;28;20217;-76
2021/10/02 07:42:18;;;;;;;12.33;11.10;;;12.90;99.90;;;;;;5034163;28;20658;-76
2021/10/02 07:44:49;;;;;;;14.40;11.30;;;12.90;99.90;;;;;;5033814;28;20194;-77
2021/10/02 07:47:16;;;;;;;16.17;12.17;;;13.00;99.90;;;;;;5034143;28;20174;-76
2021/10/02 07:49:43;;;;;;;14.97;10.27;;;13.00;99.90;;;;;;5033693;28;20273;-77
2021/10/02 07:52:08;;;;;;;12.13;10.47;;;13.00;99.90;;;;;;5016498;28;20683;-76
2021/10/02 07:54:35;;;;;;;13.30;11.97;;;13.10;99.90;;;;;;5033821;28;20202;-77
2021/10/02 07:57:02;;;;;;;18.83;16.80;;;13.20;99.90;;;;;;5033969;28;20182;-74
2021/10/02 07:59:29;;;;;;;19.17;16.20;;;13.30;99.90;;;;;;5034183;28;20224;-76
2021/10/02 08:02:00;;;;;;;21.87;17.90;;;13.30;99.90;;;;;;5033183;28;20245;-74
2021/10/02 08:04:25;;;;;;;26.17;18.83;;;13.40;99.90;;;;;;5021428;28;20206;-77
2021/10/02 08:06:53;;;;;;;22.97;17.93;;;13.50;99.90;;;;;;5033459;28;20204;-77
2021/10/02 08:09:20;;;;;;;21.93;16.97;;;13.60;99.90;;;;;;5033020;28;20193;-76
2021/10/02 08:11:46;;;;;;;24.73;17.17;;;13.70;99.90;;;;;;5012696;28;20187;-77
2021/10/02 08:14:12;;;;;;;26.77;18.17;;;13.80;99.90;;;;;;5032539;28;20193;-76
2021/10/02 08:16:39;;;;;;;19.67;16.87;;;13.80;99.90;;;;;;5033462;28;20186;-77
2021/10/02 08:19:07;;;;;;;17.13;15.33;;;13.90;99.90;;;;;;5031210;28;20178;-78
2021/10/02 08:21:34;;;;;;;17.83;15.33;;;13.90;99.90;;;;;;5033904;28;20264;-77
2021/10/02 08:24:02;;;;;;;16.87;14.90;;;14.00;99.90;;;;;;5019491;28;20183;-75
2021/10/02 08:26:29;;;;;;;16.67;14.03;;;14.10;99.90;;;;;;5022419;28;20229;-77
2021/10/02 08:28:56;;;;;;;15.60;13.20;;;14.20;99.90;;;;;;5038063;28;20270;-78
2021/10/02 08:31:25;;;;;;;14.37;13.00;;;14.20;99.90;;;;;;5034748;28;20210;-74
2021/10/02 08:33:52;;;;;;;14.00;12.47;;;14.30;99.90;;;;;;5039726;28;20705;-77
2021/10/02 08:36:18;;;;;;;12.63;11.07;;;14.40;99.90;;;;;;5038116;28;20665;-77
2021/10/02 08:38:44;;;;;;;12.57;11.37;;;14.40;99.90;;;;;;5037587;28;20229;-78
2021/10/02 08:41:13;;;;;;;12.67;10.87;;;14.40;99.90;;;;;;5035881;28;20210;-77
2021/10/02 08:43:39;;;;;;;13.20;11.80;;;14.40;99.90;;;;;;5033431;28;20552;-77
2021/10/02 08:46:08;;;;;;;13.17;10.87;;;14.40;99.90;;;;;;5014475;28;20206;-77
2021/10/02 08:48:35;;;;;;;16.30;12.47;;;14.40;99.90;;;;;;5030116;28;20171;-76
2021/10/02 08:51:04;;;;;;;12.03;10.83;;;14.50;99.90;;;;;;5038127;28;20206;-78
2021/10/02 08:53:32;;;;;;;13.10;11.80;;;14.50;99.90;;;;;;5019946;28;20178;-78
2021/10/02 08:56:00;;;;;;;14.97;12.47;;;14.60;99.90;;;;;;5036587;28;20228;-78
2021/10/02 08:58:26;;;;;;;14.20;12.80;;;14.60;99.90;;;;;;5041487;28;20194;-77
2021/10/02 09:00:52;;;;;;;14.60;12.30;;;14.60;99.90;;;;;;5043459;28;20178;-78
2021/10/02 09:03:19;;;;;;;13.27;11.87;;;14.70;99.90;;;;;;5042663;28;20616;-77
2021/10/02 09:05:46;;;;;;;15.77;13.27;;;14.80;99.90;;;;;;5036889;28;20714;-77
2021/10/02 09:08:14;;;;;;;14.57;11.87;;;14.80;99.90;;;;;;5034541;28;20554;-78
2021/10/02 09:10:41;;;;;;;13.30;11.97;;;14.90;99.90;;;;;;5036119;28;20641;-78
2021/10/02 09:13:07;;;;;;;13.00;11.60;;;14.90;99.90;;;;;;5022796;28;20192;-77
2021/10/02 09:15:33;;;;;;;13.97;11.60;;;15.00;99.90;;;;;;5017071;28;20234;-78
2021/10/02 09:18:00;;;;;;;13.17;11.90;;;15.10;99.90;;;;;;5031757;28;20205;-77
2021/10/02 09:20:27;;;;;;;13.03;11.73;;;15.20;99.90;;;;;;5036969;28;20664;-76
2021/10/02 09:23:03;;;;;;;14.93;11.83;;;15.60;99.90;;;;;;5034744;28;20206;-78
2021/10/02 09:25:32;;;;;;;11.90;10.60;;;15.60;99.90;;;;;;5038799;28;20569;-78
2021/10/02 09:28:24;;;;;;;11.13;10.13;;;15.70;99.90;;;;;;5029831;28;20186;-77
2021/10/02 09:31:02;;;;;;;11.30;10.20;;;15.70;99.90;;;;;;5024163;28;20279;-78
2021/10/02 09:33:27;;;;;;;11.87;10.67;;;15.70;99.90;;;;;;5035631;28;20210;-77
2021/10/02 09:35:59;;;;;;;11.23;9.63;;;15.70;99.90;;;;;;5036390;28;20204;-75
2021/10/02 09:38:32;;;;;;;8.77;7.97;;;15.90;99.90;;;;;;5037834;28;20185;-74
2021/10/02 09:41:01;;;;;;;8.13;7.43;;;16.00;99.90;;;;;;5022379;28;20178;-74
2021/10/02 09:43:29;;;;;;;13.30;7.67;;;16.10;99.90;;;;;;5038278;28;20180;-78
2021/10/02 09:45:55;;;;;;;7.87;6.90;;;16.30;99.90;;;;;;5026558;28;20198;-77
2021/10/02 09:48:28;;;;;;;7.57;6.87;;;16.30;99.90;;;;;;5002271;28;20238;-77
2021/10/02 09:50:54;;;;;;;7.10;6.40;;;16.60;99.90;;;;;;5033693;28;20716;-77
2021/10/02 09:53:20;;;;;;;7.30;6.67;;;16.60;99.90;;;;;;5027974;28;20204;-77
2021/10/02 09:55:49;;;;;;;8.47;6.70;;;16.70;99.90;;;;;;5012598;28;20602;-77
2021/10/02 09:58:34;;;;;;;7.33;6.47;;;16.80;99.90;;;;;;5026076;28;20201;-77
2021/10/02 10:01:04;;;;;;;6.73;6.13;;;16.90;99.90;;;;;;5024314;28;20205;-77
2021/10/02 10:03:59;;;;;;;7.37;6.70;;;17.00;99.90;;;;;;5025623;28;20186;-78
2021/10/02 10:06:27;;;;;;;6.97;6.37;;;17.10;99.90;;;;;;5009971;28;20229;-78
2021/10/02 10:09:09;;;;;;;7.47;6.43;;;17.20;99.90;;;;;;5013799;28;20181;-77
2021/10/02 10:11:47;;;;;;;6.90;6.30;;;17.30;99.90;;;;;;5032711;28;20264;-77
2021/10/02 10:14:24;;;;;;;7.73;6.60;;;17.50;99.90;;;;;;5032959;28;20271;-77
2021/10/02 10:16:51;;;;;;;6.73;5.90;;;17.60;99.90;;;;;;5036303;28;20182;-78
2021/10/02 10:19:20;;;;;;;6.67;6.10;;;17.60;99.90;;;;;;5039375;28;20250;-78
2021/10/02 10:21:46;;;;;;;8.20;7.50;;;;;;;;;;5034078;28;20208;-78
2021/10/02 10:24:20;;;;;;;7.60;7.00;;;17.70;99.90;;;;;;5047182;28;20195;-78
2021/10/02 10:26:46;;;;;;;10.37;6.60;;;17.80;99.90;;;;;;5039069;28;20189;-78
2021/10/02 10:29:11;;;;;;;7.00;6.30;;;18.10;99.90;;;;;;5036805;28;20235;-78
2021/10/02 10:31:39;;;;;;;7.77;7.07;;;;;;;;;;5035580;28;20225;-78
2021/10/02 10:34:06;;;;;;;10.30;6.30;;;18.40;99.90;;;;;;5033858;28;20194;-78
2021/10/02 10:36:32;;;;;;;8.37;5.87;;;18.40;99.90;;;;;;5013330;28;20188;-78
2021/10/02 10:38:58;;;;;;;7.33;6.27;;;;;;;;;;5032142;28;20186;-76
2021/10/02 10:41:27;;;;;;;6.50;5.90;;;18.70;99.90;;;;;;5043049;28;20197;-78
2021/10/02 10:43:54;;;;;;;6.53;5.93;;;18.80;99.90;;;;;;5042052;28;20643;-78
2021/10/02 10:46:23;;;;;;;5.77;5.27;;;19.00;99.90;;;;;;5040819;28;20180;-78
2021/10/02 10:48:49;;;;;;;5.60;5.10;;;19.00;99.90;;;;;;5032861;28;20240;-77
2021/10/02 10:51:18;;;;;;;6.30;5.60;;;19.20;99.90;;;;;;5032603;28;20642;-77
2021/10/02 10:53:50;;;;;;;5.50;4.80;;;19.30;99.90;;;;;;5032087;28;20182;-77
2021/10/02 10:56:18;;;;;;;6.77;5.30;;;;;;;;;;5011300;28;20226;-77
2021/10/02 10:58:58;;;;;;;5.77;5.17;;;19.40;99.90;;;;;;5042013;28;20237;-78
2021/10/02 11:01:39;;;;;;;5.97;5.00;;;19.40;99.90;;;;;;5030000;28;20185;-77
2021/10/02 11:04:05;;;;;;;7.90;5.70;;;19.60;99.90;;;;;;5041710;28;20174;-77
2021/10/02 11:06:55;;;;;;;5.67;5.17;;;19.70;99.90;;;;;;5039066;28;20269;-78
2021/10/02 11:09:41;;;;;;;5.37;4.87;;;19.70;99.90;;;;;;5039390;28;20257;-79
2021/10/02 11:12:11;;;;;;;5.57;5.07;;;19.70;99.90;;;;;;5036995;28;20197;-77
2021/10/02 11:14:54;;;;;;;6.40;5.20;;;19.70;99.90;;;;;;5026586;28;20289;-78
2021/10/02 11:17:31;;;;;;;6.63;5.27;;;19.80;99.90;;;;;;5029732;28;20182;-77
2021/10/02 11:20:20;;;;;;;6.37;5.00;;;19.90;99.90;;;;;;5029966;28;20185;-77
2021/10/02 11:23:23;;;;;;;6.13;5.47;;;20.10;99.90;;;;;;5023834;28;20218;-77
2021/10/02 11:26:11;;;;;;;6.07;4.73;;;20.30;99.90;;;;;;5039876;28;20201;-77
2021/10/02 11:28:37;;;;;;;5.77;5.27;;;20.30;99.90;;;;;;5038097;28;20202;-78
2021/10/02 11:31:12;;;;;;;6.13;5.03;;;;;;;;;;5042367;28;20646;-78
2021/10/02 11:33:50;;;;;;;5.33;4.93;;;20.40;99.90;;;;;;5039011;28;20177;-77
2021/10/02 11:36:28;;;;;;;5.23;4.80;;;20.40;99.90;;;;;;5032907;28;20194;-79
2021/10/02 11:39:12;;;;;;;5.87;5.03;;;20.50;99.90;;;;;;5031253;28;20262;-78
2021/10/02 11:41:49;;;;;;;5.60;5.10;;;20.70;99.90;;;;;;5036045;28;20688;-78
2021/10/02 11:44:38;;;;;;;6.90;5.90;;;20.70;99.90;;;;;;5037142;28;20228;-79
2021/10/02 11:47:23;;;;;;;5.30;4.90;;;;;;;;;;5036840;28;20206;-78
2021/10/02 11:50:06;;;;;;;5.20;4.80;;;20.90;99.90;;;;;;5026056;28;20182;-79
2021/10/02 11:52:56;;;;;;;6.63;5.03;;;20.90;99.90;;;;;;5037947;28;20175;-78
2021/10/02 11:55:45;;;;;;;5.33;4.83;;;21.00;99.90;;;;;;5006694;28;20257;-78
2021/10/02 11:58:12;;;;;;;5.00;4.57;;;21.00;99.90;;;;;;5029831;28;20183;-77
2021/10/02 12:00:46;;;;;;;8.07;5.00;;;20.90;99.90;;;;;;5030562;28;20179;-78
2021/10/02 12:03:13;;;;;;;7.57;4.63;;;20.90;99.90;;;;;;5017115;28;20277;-77
2021/10/02 12:05:44;;;;;;;5.50;5.00;;;20.90;99.90;;;;;;5017392;28;20274;-77
2021/10/02 12:08:10;;;;;;;5.10;4.43;;;20.90;99.90;;;;;;5034841;28;20191;-78
2021/10/02 12:11:09;;;;;;;5.00;4.60;;;20.90;99.90;;;;;;5037937;28;20564;-77
2021/10/02 12:13:55;;;;;;;8.90;5.23;;;20.80;99.90;;;;;;5002731;28;20186;-78
2021/10/02 12:16:25;;;;;;;7.03;5.33;;;20.80;99.90;;;;;;5030390;28;20170;-79
2021/10/02 12:18:53;;;;;;;5.67;5.10;;;20.90;99.90;;;;;;5019920;28;20547;-78
2021/10/02 12:21:27;;;;;;;5.80;5.17;;;20.90;99.90;;;;;;5037879;28;20198;-78
2021/10/02 12:24:02;;;;;;;5.27;4.77;;;20.90;99.90;;;;;;5039075;28;20178;-78
2021/10/02 12:26:29;;;;;;;5.37;4.87;;;21.00;99.90;;;;;;5032314;28;20637;-79
2021/10/02 12:29:04;;;;;;;5.23;4.73;;;21.00;99.90;;;;;;5035990;28;20297;-78
2021/10/02 12:31:52;;;;;;;4.80;4.40;;;21.00;99.90;;;;;;5014172;28;20182;-78
2021/10/02 12:34:29;;;;;;;5.57;5.07;;;20.90;99.90;;;;;;5035704;28;20198;-78
2021/10/02 12:37:07;;;;;;;5.77;4.57;;;21.00;99.90;;;;;;5035906;28;20174;-78
2021/10/02 12:39:37;;;;;;;5.27;4.77;;;21.20;99.90;;;;;;5026874;28;20183;-78
2021/10/02 12:42:06;;;;;;;5.50;5.00;;;21.40;99.90;;;;;;5035537;28;20629;-78
2021/10/02 12:44:35;;;;;;;6.00;5.00;;;21.40;99.90;;;;;;5018937;28;20229;-78
2021/10/02 12:47:04;;;;;;;5.40;5.00;;;21.30;99.90;;;;;;5035351;28;20196;-77
2021/10/02 12:49:41;;;;;;;5.13;4.63;;;21.30;99.90;;;;;;5035239;28;20181;-78
2021/10/02 12:52:07;;;;;;;4.80;4.40;;;21.30;99.90;;;;;;5035559;28;20593;-83
2021/10/02 12:54:33;;;;;;;6.03;4.90;;;21.30;99.90;;;;;;5039816;28;20289;-84
2021/10/02 12:57:02;;;;;;;4.93;4.53;;;21.30;99.90;;;;;;5039142;28;20225;-84
2021/10/02 12:59:49;;;;;;;4.37;4.00;;;21.30;99.90;;;;;;5039517;28;20206;-84
2021/10/02 13:02:17;;;;;;;5.87;4.60;;;21.10;99.90;;;;;;5022489;28;20617;-84
2021/10/02 13:04:43;;;;;;;5.67;5.10;;;21.10;99.90;;;;;;5039812;28;20570;-84
2021/10/02 13:07:09;;;;;;;5.70;5.03;;;21.00;99.90;;;;;;5039657;28;20182;-84
2021/10/02 13:10:05;;;;;;;5.17;4.63;;;21.00;99.90;;;;;;5039699;28;20178;-84
2021/10/02 13:12:56;;;;;;;5.63;5.00;;;21.00;99.90;;;;;;5021597;28;20229;-84
2021/10/02 13:15:24;;;;;;;6.03;5.43;;;21.00;99.90;;;;;;5020970;28;20301;-83
2021/10/02 13:18:05;;;;;;;6.73;4.83;;;21.00;99.90;;;;;;5022080;28;20182;-84
2021/10/02 13:20:34;;;;;;;5.50;4.90;;;21.00;99.90;;;;;;5039428;28;20269;-84
2021/10/02 13:23:05;;;;;;;5.53;4.80;;;21.00;99.90;;;;;;5039724;28;20202;-84
2021/10/02 13:25:31;;;;;;;5.73;5.23;;;21.00;99.90;;;;;;5039122;28;20191;-84
2021/10/02 13:27:58;;;;;;;5.97;4.90;;;21.10;99.90;;;;;;5022094;28;20656;-84
2021/10/02 13:30:27;;;;;;;5.40;4.80;;;21.10;99.90;;;;;;5021389;28;20178;-85
2021/10/02 13:33:05;;;;;;;7.77;5.77;;;21.10;99.90;;;;;;5021142;28;20190;-84
2021/10/02 13:35:36;;;;;;;6.53;4.90;;;21.00;99.90;;;;;;5038296;28;20285;-83
2021/10/02 13:38:02;;;;;;;6.93;4.77;;;21.00;99.90;;;;;;5038389;28;20583;-85
2021/10/02 13:40:34;;;;;;;5.27;4.83;;;21.00;99.90;;;;;;5039225;28;20669;-84
2021/10/02 13:43:01;;;;;;;5.97;5.00;;;20.90;99.90;;;;;;5038624;28;20277;-84
2021/10/02 13:45:33;;;;;;;5.40;4.80;;;20.90;99.90;;;;;;5020913;28;20221;-84
2021/10/02 13:48:06;;;;;;;5.47;4.97;;;20.90;99.90;;;;;;5039237;28;20186;-83
2021/10/02 13:50:32;;;;;;;5.87;5.27;;;20.90;99.90;;;;;;5038688;28;20638;-84
2021/10/02 13:52:58;;;;;;;5.73;4.53;;;20.90;99.90;;;;;;5039234;28;20665;-85
2021/10/02 13:55:25;;;;;;;5.10;4.60;;;20.90;99.90;;;;;;5021158;28;20285;-84
2021/10/02 13:57:51;;;;;;;7.03;5.20;;;20.90;99.90;;;;;;5038973;28;20175;-84